createdAt,value
2018-09-26T10:21:27.028Z,19.5
2018-09-26T10:26:26.237Z,19.4
2018-09-26T10:31:25.779Z,19.9
2018-09-26T10:36:25.732Z,20.3
2018-09-26T10:41:26.138Z,20.6
2018-09-26T10:46:25.979Z,20.9
2018-09-26T10:51:25.842Z,21.3
2018-09-26T10:56:25.179Z,21.3
2018-09-26T11:01:27.078Z,21.5
2018-09-26T11:06:27.087Z,21.8
2018-09-26T11:12:28.092Z,22.1
2018-09-26T11:17:27.465Z,22.1
2018-09-26T11:22:28.368Z,22.2
2018-09-26T11:27:27.204Z,22.5
2018-09-26T11:32:27.395Z,22.9
2018-09-26T11:37:26.977Z,22.8
2018-09-26T11:42:26.823Z,23.3
2018-09-26T11:47:27.375Z,23.4
2018-09-26T11:52:28.895Z,23.5
2018-09-26T11:57:27.086Z,23.4
2018-09-26T12:02:28.014Z,23.7
2018-09-26T12:07:28.049Z,24.2
2018-09-26T12:12:27.293Z,25.1
2018-09-26T12:17:27.572Z,25.2
2018-09-26T12:22:28.859Z,25.2
2018-09-26T12:27:26.890Z,25.6
2018-09-26T12:32:27.516Z,25.6
2018-09-26T12:37:27.745Z,26.1
2018-09-26T12:42:27.255Z,26.6
2018-09-26T12:47:27.687Z,27.1
2018-09-26T12:52:27.370Z,27.5
2018-09-26T12:57:27.564Z,27.6
2018-09-26T13:02:26.816Z,27.9
2018-09-26T13:07:26.871Z,28.2
2018-09-26T13:12:27.300Z,28.5
2018-09-26T13:17:27.258Z,29.1
2018-09-26T13:22:27.741Z,29.6
2018-09-26T13:27:27.061Z,30.0
2018-09-26T13:32:27.587Z,30.4
2018-09-26T13:37:27.680Z,30.7
2018-09-26T13:42:27.422Z,30.8
2018-09-26T13:47:27.116Z,31.1
2018-09-26T13:52:27.090Z,31.9
2018-09-26T13:57:27.950Z,31.8
2018-09-26T14:02:27.314Z,32.4
2018-09-26T14:07:27.007Z,33.3
2018-09-26T14:12:27.601Z,34.2
2018-09-26T14:17:28.570Z,35.1
2018-09-26T14:22:27.001Z,36.2
2018-09-26T14:27:27.195Z,36.7
2018-09-26T14:32:27.144Z,36.7
2018-09-26T14:37:27.031Z,37.2
2018-09-26T14:42:27.069Z,37.3
2018-09-26T14:47:27.511Z,36.2
2018-09-26T14:52:27.417Z,35.8
2018-09-26T14:57:27.017Z,34.8
2018-09-26T15:02:27.240Z,34.7
2018-09-26T15:07:27.509Z,34.5
2018-09-26T15:12:27.213Z,34.5
2018-09-26T15:17:27.448Z,34.8
2018-09-26T15:22:28.301Z,33.5
2018-09-26T15:27:26.958Z,33.5
2018-09-26T15:32:27.170Z,33.9
2018-09-26T15:37:29.311Z,36.0
2018-09-26T15:42:27.117Z,38.4
2018-09-26T15:47:27.081Z,38.8
2018-09-26T15:52:27.877Z,40.3
2018-09-26T15:57:27.280Z,43.2
2018-09-26T16:02:27.414Z,44.3
2018-09-26T16:07:27.395Z,43.9
2018-09-26T16:12:27.482Z,43.7
2018-09-26T16:17:27.910Z,43.5
2018-09-26T16:22:27.414Z,42.8
2018-09-26T16:27:27.389Z,42.8
2018-09-26T16:32:27.257Z,39.0
2018-09-26T16:37:27.503Z,38.6
2018-09-26T16:42:27.799Z,38.6
2018-09-26T16:47:27.092Z,36.9
2018-09-26T16:52:26.974Z,35.3
2018-09-26T16:57:26.896Z,32.5
2018-09-26T17:02:27.263Z,31.8
2018-09-26T17:07:28.149Z,29.0
2018-09-26T17:12:27.096Z,28.9
2018-09-26T17:17:27.831Z,26.8
2018-09-26T17:22:26.904Z,23.9
2018-09-26T17:27:27.457Z,23.8
2018-09-26T17:32:28.067Z,22.9
2018-09-26T17:37:28.152Z,21.3
2018-09-26T17:42:27.599Z,21.2
2018-09-26T17:47:26.926Z,19.9
2018-09-26T17:52:27.372Z,19.9
2018-09-26T17:57:26.739Z,19.5
2018-09-26T18:02:27.737Z,19.1
2018-09-26T18:07:26.871Z,18.7
2018-09-26T18:12:27.084Z,18.3
2018-09-26T18:17:26.819Z,18.0
2018-09-26T18:22:26.797Z,17.7
2018-09-26T18:27:27.301Z,17.4
2018-09-26T18:32:26.464Z,17.3
2018-09-26T18:37:27.227Z,17.0
2018-09-26T18:42:28.131Z,16.8
2018-09-26T18:47:27.480Z,16.5
2018-09-26T18:52:26.283Z,16.2
2018-09-26T18:57:26.598Z,15.7
2018-09-26T19:02:28.432Z,15.7
2018-09-26T19:07:26.927Z,15.2
2018-09-26T19:12:27.527Z,15.2
2018-09-26T19:17:28.397Z,15.0
2018-09-26T19:22:27.096Z,14.8
2018-09-26T19:27:26.821Z,14.6
2018-09-26T19:32:28.797Z,14.4
2018-09-26T19:37:26.837Z,14.3
2018-09-26T19:42:27.312Z,14.1
2018-09-26T19:47:26.739Z,14.0
2018-09-26T19:52:27.881Z,13.9
2018-09-26T19:57:26.771Z,13.8
2018-09-26T20:02:27.872Z,13.7
2018-09-26T20:07:27.104Z,13.4
2018-09-26T20:12:26.735Z,13.2
2018-09-26T20:17:27.782Z,13.1
2018-09-26T20:22:27.745Z,12.8
2018-09-26T20:27:26.666Z,12.8
2018-09-26T20:32:27.081Z,12.8
2018-09-26T20:37:26.686Z,12.7
2018-09-26T20:42:27.891Z,12.6
2018-09-26T20:47:27.024Z,12.5
2018-09-26T20:52:26.740Z,12.3
2018-09-26T20:57:27.080Z,12.2
2018-09-26T21:02:27.660Z,12.1
2018-09-26T21:07:27.566Z,12.0
2018-09-26T21:12:26.836Z,11.9
2018-09-26T21:17:27.715Z,11.8
2018-09-26T21:22:26.785Z,11.5
2018-09-26T21:27:27.147Z,11.4
2018-09-26T21:32:26.930Z,11.4
2018-09-26T21:37:26.739Z,11.2
2018-09-26T21:42:27.227Z,11.1
2018-09-26T21:47:27.477Z,11.0
2018-09-26T21:52:26.691Z,11.0
2018-09-26T21:57:27.636Z,10.8
2018-09-26T22:02:27.361Z,10.7
2018-09-26T22:07:27.750Z,10.6
2018-09-26T22:12:27.255Z,10.5
2018-09-26T22:22:41.425Z,10.1
2018-09-26T22:27:39.499Z,10.1
2018-09-26T22:32:39.376Z,10.1
2018-09-26T22:37:40.375Z,10.1
2018-09-26T22:42:39.904Z,10.0
2018-09-26T22:47:40.492Z,9.9
2018-09-26T22:52:39.178Z,9.8
2018-09-26T22:57:39.659Z,9.8
2018-09-26T23:02:40.836Z,9.7
2018-09-26T23:07:39.130Z,9.6
2018-09-26T23:12:27.304Z,9.5
2018-09-26T23:17:26.997Z,9.4
2018-09-26T23:22:26.858Z,9.4
2018-09-26T23:27:27.502Z,9.3
2018-09-26T23:32:27.380Z,9.2
2018-09-26T23:37:28.539Z,9.1
2018-09-26T23:42:28.327Z,8.9
2018-09-26T23:47:27.332Z,8.8
2018-09-26T23:52:27.660Z,8.8
2018-09-26T23:57:26.982Z,8.7
